createdAt,value
2019-02-09T00:01:12.754Z,98.20
2019-02-09T00:03:40.281Z,98.20
2019-02-09T00:06:07.794Z,98.10
2019-02-09T00:08:35.377Z,98.20
2019-02-09T00:11:05.153Z,98.20
2019-02-09T00:13:32.687Z,98.00
2019-02-09T00:16:00.240Z,98.20
2019-02-09T00:18:27.718Z,98.20
2019-02-09T00:20:55.231Z,98.20
2019-02-09T00:23:22.801Z,98.40
2019-02-09T00:25:50.381Z,98.30
2019-02-09T00:28:17.897Z,98.20
2019-02-09T00:30:45.420Z,98.20
2019-02-09T00:33:12.921Z,98.20
2019-02-09T00:35:40.501Z,98.20
2019-02-09T00:38:08.001Z,98.10
2019-02-09T00:40:35.511Z,98.20
2019-02-09T00:43:03.047Z,98.20
2019-02-09T00:45:30.654Z,98.10
2019-02-09T00:47:58.151Z,98.10
2019-02-09T00:50:25.681Z,98.10
2019-02-09T00:52:53.287Z,98.20
2019-02-09T00:55:21.559Z,97.90
2019-02-09T00:57:49.417Z,98.00
2019-02-09T01:00:19.598Z,98.00
2019-02-09T01:02:47.249Z,98.10
2019-02-09T01:05:16.397Z,98.20
2019-02-09T01:07:43.939Z,98.20
2019-02-09T01:10:12.745Z,98.00
2019-02-09T01:12:40.237Z,98.00
2019-02-09T01:15:10.304Z,98.10
2019-02-09T01:17:40.123Z,98.00
2019-02-09T01:20:43.525Z,98.20
2019-02-09T01:23:14.437Z,98.30
2019-02-09T01:25:42.139Z,98.20
2019-02-09T01:28:09.732Z,98.10
2019-02-09T01:30:37.343Z,98.20
2019-02-09T01:33:04.869Z,98.10
2019-02-09T01:35:32.409Z,98.10
2019-02-09T01:37:59.905Z,98.10
2019-02-09T01:40:27.426Z,98.10
2019-02-09T01:42:55.094Z,98.20
2019-02-09T01:45:24.823Z,98.10
2019-02-09T01:47:52.633Z,98.20
2019-02-09T01:50:20.336Z,98.10
2019-02-09T01:52:47.845Z,98.30
2019-02-09T01:55:15.361Z,98.10
2019-02-09T01:57:43.001Z,98.10
2019-02-09T02:00:21.881Z,98.10
2019-02-09T02:02:49.739Z,97.90
2019-02-09T02:05:19.058Z,98.00
2019-02-09T02:07:46.585Z,98.10
2019-02-09T02:10:23.517Z,98.00
2019-02-09T02:12:51.146Z,98.00
2019-02-09T02:15:18.674Z,98.20
2019-02-09T02:17:46.217Z,98.30
2019-02-09T02:20:16.177Z,98.10
2019-02-09T02:22:43.795Z,98.20
2019-02-09T02:25:11.649Z,98.30
2019-02-09T02:27:39.155Z,98.30
2019-02-09T02:30:08.334Z,98.30
2019-02-09T02:32:35.880Z,98.70
2019-02-09T02:35:04.587Z,98.30
2019-02-09T02:37:32.099Z,98.30
2019-02-09T02:39:59.645Z,98.20
2019-02-09T02:42:27.163Z,98.30
2019-02-09T02:44:54.677Z,98.20
2019-02-09T02:47:22.245Z,98.10
2019-02-09T02:49:51.022Z,98.40
2019-02-09T02:52:18.528Z,98.30
2019-02-09T02:54:46.089Z,98.30
2019-02-09T02:57:13.585Z,98.20
2019-02-09T02:59:41.117Z,98.00
2019-02-09T03:02:08.622Z,98.00
2019-02-09T03:04:36.190Z,98.10
2019-02-09T03:07:03.765Z,98.00
2019-02-09T03:09:31.272Z,98.00
2019-02-09T03:11:58.873Z,98.00
2019-02-09T03:14:26.377Z,98.10
2019-02-09T03:16:53.921Z,97.90
2019-02-09T03:19:21.495Z,97.90
2019-02-09T03:21:49.024Z,97.90
2019-02-09T03:24:16.521Z,98.00
2019-02-09T03:26:44.093Z,98.00
2019-02-09T03:29:11.586Z,98.00
2019-02-09T03:31:39.112Z,98.10
2019-02-09T03:34:06.669Z,97.90
2019-02-09T03:36:34.155Z,97.90
2019-02-09T03:39:01.685Z,98.00
2019-02-09T03:41:29.269Z,97.80
2019-02-09T03:43:56.733Z,97.80
2019-02-09T03:46:24.286Z,97.80
2019-02-09T03:48:53.843Z,97.80
2019-02-09T03:51:21.333Z,97.80
2019-02-09T03:53:49.955Z,97.80
2019-02-09T03:56:17.449Z,97.60
2019-02-09T03:58:44.937Z,97.70
2019-02-09T04:01:12.485Z,97.70
2019-02-09T04:03:40.033Z,97.80
2019-02-09T04:06:07.549Z,97.80
2019-02-09T04:08:35.121Z,97.70
2019-02-09T04:11:02.628Z,97.80
2019-02-09T04:13:30.134Z,97.90
2019-02-09T04:15:57.691Z,97.80
2019-02-09T04:18:25.232Z,97.90
2019-02-09T04:20:52.764Z,97.80
2019-02-09T04:23:20.823Z,97.80
2019-02-09T04:25:48.305Z,97.70
2019-02-09T04:28:15.798Z,97.80
2019-02-09T04:30:43.305Z,97.70
2019-02-09T04:33:10.847Z,97.60
2019-02-09T04:35:38.398Z,97.70
2019-02-09T04:38:05.887Z,97.60
2019-02-09T04:40:33.377Z,97.70
2019-02-09T04:43:00.946Z,97.70
2019-02-09T04:45:28.769Z,97.80
2019-02-09T04:47:56.247Z,97.60
2019-02-09T04:50:23.793Z,97.50
2019-02-09T04:52:51.326Z,97.60
2019-02-09T04:55:20.585Z,97.50
2019-02-09T04:57:48.219Z,97.60
2019-02-09T05:00:18.262Z,97.60
2019-02-09T05:02:45.787Z,97.70
2019-02-09T05:05:13.439Z,97.70
2019-02-09T05:07:40.971Z,97.70
2019-02-09T05:10:09.741Z,97.70
2019-02-09T05:12:37.288Z,97.60
2019-02-09T05:15:06.394Z,97.50
2019-02-09T05:17:33.911Z,97.30
2019-02-09T05:20:01.472Z,97.10
2019-02-09T05:22:28.980Z,97.10
2019-02-09T05:24:56.496Z,97.10
2019-02-09T05:27:25.603Z,96.80
2019-02-09T05:29:53.128Z,97.00
2019-02-09T05:32:20.989Z,97.30
2019-02-09T05:34:48.565Z,97.20
2019-02-09T05:37:16.076Z,97.10
2019-02-09T05:39:43.590Z,97.00
2019-02-09T05:42:11.114Z,96.90
2019-02-09T05:44:38.612Z,97.00
2019-02-09T05:47:06.100Z,96.80
2019-02-09T05:49:33.632Z,96.70
2019-02-09T05:52:01.122Z,96.70
2019-02-09T05:54:28.617Z,96.80
2019-02-09T05:56:56.136Z,96.70
2019-02-09T05:59:23.643Z,96.60
2019-02-09T06:01:51.154Z,96.60
2019-02-09T06:04:18.676Z,96.90
2019-02-09T06:06:46.194Z,96.50
2019-02-09T06:09:13.710Z,96.60
2019-02-09T06:11:41.233Z,96.50
2019-02-09T06:14:08.732Z,96.40
2019-02-09T06:16:36.257Z,96.30
2019-02-09T06:19:03.820Z,96.20
2019-02-09T06:21:31.332Z,96.60
2019-02-09T06:23:58.850Z,96.30
2019-02-09T06:26:26.418Z,96.30
2019-02-09T06:28:53.992Z,96.30
2019-02-09T06:31:21.499Z,96.40
2019-02-09T06:33:51.073Z,96.10
2019-02-09T06:36:18.603Z,96.10
2019-02-09T06:38:46.201Z,96.10
2019-02-09T06:41:13.695Z,95.90
2019-02-09T06:43:41.221Z,95.90
2019-02-09T06:46:08.750Z,95.80
2019-02-09T06:48:36.291Z,95.90
2019-02-09T06:51:04.806Z,95.60
2019-02-09T06:53:32.375Z,95.80
2019-02-09T06:55:59.894Z,95.20
2019-02-09T06:58:27.414Z,94.80
2019-02-09T07:00:54.968Z,94.70
2019-02-09T07:03:22.540Z,94.40
2019-02-09T07:05:51.142Z,94.30
2019-02-09T07:08:18.656Z,94.00
2019-02-09T07:10:46.441Z,93.80
2019-02-09T07:13:13.974Z,93.60
2019-02-09T07:15:41.772Z,93.50
2019-02-09T07:18:09.339Z,93.20
2019-02-09T07:20:36.826Z,93.50
2019-02-09T07:23:04.979Z,93.10
2019-02-09T07:25:32.615Z,92.50
2019-02-09T07:28:00.146Z,92.50
2019-02-09T07:30:28.858Z,92.10
2019-02-09T07:32:57.626Z,92.00
2019-02-09T07:35:25.231Z,91.60
2019-02-09T07:37:52.838Z,92.00
2019-02-09T07:40:21.156Z,91.30
2019-02-09T07:42:48.766Z,91.10
2019-02-09T07:45:18.394Z,90.60
2019-02-09T07:47:45.948Z,90.70
2019-02-09T07:50:15.249Z,90.50
2019-02-09T07:52:42.770Z,90.70
2019-02-09T07:55:12.018Z,90.30
2019-02-09T07:57:39.542Z,90.10
2019-02-09T08:00:10.790Z,90.00
2019-02-09T08:02:38.370Z,89.20
2019-02-09T08:05:06.114Z,89.00
2019-02-09T08:07:33.642Z,88.30
2019-02-09T08:10:01.178Z,88.30
2019-02-09T08:12:28.720Z,88.30
2019-02-09T08:14:56.215Z,87.70
2019-02-09T08:17:23.748Z,87.30
2019-02-09T08:19:51.294Z,87.10
2019-02-09T08:22:18.813Z,86.00
2019-02-09T08:24:46.306Z,85.20
2019-02-09T08:27:13.881Z,83.80
2019-02-09T08:29:41.446Z,81.10
2019-02-09T08:32:12.764Z,80.10
2019-02-09T08:34:40.575Z,78.20
2019-02-09T08:37:20.802Z,74.80
2019-02-09T08:40:09.410Z,74.30
2019-02-09T08:42:49.172Z,76.00
2019-02-09T08:45:17.662Z,76.50
2019-02-09T08:47:45.282Z,76.70
2019-02-09T08:50:16.394Z,76.80
2019-02-09T08:52:48.126Z,77.90
2019-02-09T08:55:24.666Z,78.50
2019-02-09T08:57:52.370Z,78.40
2019-02-09T09:00:22.806Z,78.50
2019-02-09T09:02:52.622Z,79.40
2019-02-09T09:05:20.110Z,78.80
2019-02-09T09:07:47.736Z,77.80
2019-02-09T09:10:16.034Z,77.30
2019-02-09T09:12:43.542Z,77.50
2019-02-09T09:15:17.084Z,77.90
2019-02-09T09:17:44.573Z,77.60
2019-02-09T09:20:16.276Z,77.00
2019-02-09T09:22:43.760Z,77.00
2019-02-09T09:25:11.320Z,77.40
2019-02-09T09:27:38.864Z,77.00
2019-02-09T09:30:08.566Z,77.30
2019-02-09T09:32:36.082Z,78.00
2019-02-09T09:35:23.236Z,77.20
2019-02-09T09:37:51.072Z,77.40
2019-02-09T09:40:26.638Z,76.20
2019-02-09T09:42:54.974Z,75.90
2019-02-09T09:45:24.899Z,75.90
2019-02-09T09:47:52.618Z,75.70
2019-02-09T09:50:21.466Z,75.70
2019-02-09T09:52:49.178Z,75.90
2019-02-09T09:55:17.184Z,75.70
2019-02-09T09:57:44.706Z,75.60
2019-02-09T10:00:14.256Z,75.50
2019-02-09T10:02:41.768Z,75.50
2019-02-09T10:05:09.468Z,76.00
2019-02-09T10:07:37.026Z,76.30
2019-02-09T10:10:05.983Z,76.00
2019-02-09T10:12:33.670Z,76.00
2019-02-09T10:15:01.318Z,76.30
2019-02-09T10:17:28.798Z,76.40
2019-02-09T10:19:56.350Z,76.80
2019-02-09T10:22:33.890Z,76.50
2019-02-09T10:25:01.369Z,76.60
2019-02-09T10:27:33.690Z,76.50
2019-02-09T10:30:01.205Z,76.30
2019-02-09T10:32:53.972Z,76.60
2019-02-09T10:35:30.389Z,76.20
2019-02-09T10:37:57.898Z,76.20
2019-02-09T10:40:27.354Z,75.60
2019-02-09T10:42:55.109Z,75.20
2019-02-09T10:45:27.206Z,75.50
2019-02-09T10:47:54.818Z,75.70
2019-02-09T10:50:27.932Z,75.40
2019-02-09T10:52:55.434Z,75.50
2019-02-09T10:55:23.020Z,75.00
2019-02-09T10:57:51.954Z,75.50
2019-02-09T11:00:35.090Z,75.20
2019-02-09T11:03:25.596Z,76.10
2019-02-09T11:06:01.450Z,74.90
2019-02-09T11:08:34.628Z,75.20
2019-02-09T11:11:02.094Z,74.70
2019-02-09T11:13:30.209Z,75.50
2019-02-09T11:15:57.730Z,74.30
2019-02-09T11:18:25.255Z,73.70
2019-02-09T11:20:52.846Z,73.70
2019-02-09T11:23:20.373Z,73.50
2019-02-09T11:25:48.004Z,73.00
2019-02-09T11:28:15.552Z,72.30
2019-02-09T11:30:43.126Z,72.00
2019-02-09T11:33:10.666Z,72.20
2019-02-09T11:35:38.162Z,71.60
2019-02-09T11:38:05.860Z,71.20
2019-02-09T11:40:33.474Z,69.50
2019-02-09T11:43:02.238Z,69.50
2019-02-09T11:45:31.919Z,68.60
2019-02-09T11:47:59.548Z,67.80
2019-02-09T11:50:29.070Z,68.10
2019-02-09T11:52:56.895Z,67.80
2019-02-09T11:55:24.493Z,66.90
2019-02-09T11:57:52.038Z,66.20
2019-02-09T12:00:34.101Z,65.90
2019-02-09T12:03:05.529Z,65.20
2019-02-09T12:05:31.013Z,65.50
2019-02-09T12:07:58.587Z,65.70
2019-02-09T12:10:26.389Z,65.10
2019-02-09T12:12:53.922Z,64.80
2019-02-09T12:15:25.348Z,64.50
2019-02-09T12:17:53.147Z,64.20
2019-02-09T12:20:20.970Z,64.20
2019-02-09T12:22:56.891Z,64.00
2019-02-09T12:25:29.234Z,64.30
2019-02-09T12:27:56.698Z,64.00
2019-02-09T12:30:43.427Z,64.10
2019-02-09T12:33:10.961Z,63.60
2019-02-09T12:35:38.785Z,63.10
2019-02-09T12:38:06.696Z,63.40
2019-02-09T12:40:34.294Z,63.70
2019-02-09T12:43:01.810Z,63.30
2019-02-09T12:45:30.794Z,63.10
2019-02-09T12:47:58.362Z,63.10
2019-02-09T12:50:26.231Z,63.20
2019-02-09T12:52:53.736Z,63.20
2019-02-09T12:55:39.450Z,64.00
2019-02-09T12:58:07.300Z,63.40
2019-02-09T13:01:03.482Z,63.70
2019-02-09T13:03:31.635Z,63.90
2019-02-09T13:05:59.337Z,63.70
2019-02-09T13:08:26.896Z,64.00
2019-02-09T13:10:54.805Z,63.60
2019-02-09T13:13:22.341Z,63.60
2019-02-09T13:15:49.893Z,63.90
2019-02-09T13:18:21.224Z,63.00
2019-02-09T13:21:02.430Z,63.30
2019-02-09T13:24:28.912Z,63.30
2019-02-09T13:26:56.453Z,63.00
2019-02-09T13:29:24.037Z,62.60
2019-02-09T13:31:51.663Z,62.60
2019-02-09T13:34:39.037Z,61.90
2019-02-09T13:37:08.902Z,62.40
2019-02-09T13:39:39.258Z,62.70
2019-02-09T13:42:07.274Z,62.60
2019-02-09T13:44:47.022Z,62.70
2019-02-09T13:47:14.544Z,62.90
2019-02-09T13:49:49.824Z,63.20
2019-02-09T13:53:05.289Z,64.20
2019-02-09T13:55:32.231Z,66.00
2019-02-09T13:58:21.423Z,69.40
2019-02-09T14:00:44.736Z,71.90
2019-02-09T14:03:12.291Z,75.40
2019-02-09T14:05:44.617Z,77.70
2019-02-09T14:08:12.485Z,80.40
2019-02-09T14:10:51.192Z,82.80
2019-02-09T14:13:19.964Z,85.80
2019-02-09T14:15:47.499Z,86.40
2019-02-09T14:18:15.094Z,88.40
2019-02-09T14:20:42.633Z,88.90
2019-02-09T14:23:10.184Z,89.50
2019-02-09T14:25:37.742Z,89.40
2019-02-09T14:28:05.618Z,89.40
2019-02-09T14:30:33.478Z,89.40
2019-02-09T14:33:02.554Z,89.30
2019-02-09T14:35:30.144Z,88.50
2019-02-09T14:38:01.676Z,86.90
2019-02-09T14:40:35.723Z,87.30
2019-02-09T14:43:04.069Z,87.70
2019-02-09T14:45:33.474Z,86.90
2019-02-09T14:48:01.209Z,87.00
2019-02-09T14:50:29.513Z,86.20
2019-02-09T14:52:57.242Z,86.50
2019-02-09T14:55:33.057Z,85.60
2019-02-09T14:58:01.005Z,84.80
2019-02-09T15:00:49.570Z,84.60
2019-02-09T15:03:17.281Z,84.80
2019-02-09T15:05:45.557Z,84.80
2019-02-09T15:08:13.088Z,84.50
2019-02-09T15:10:40.626Z,84.70
2019-02-09T15:13:14.180Z,84.40
2019-02-09T15:16:04.660Z,83.30
2019-02-09T15:18:32.251Z,83.80
2019-02-09T15:21:01.541Z,84.00
2019-02-09T15:23:42.219Z,84.30
2019-02-09T15:26:09.845Z,84.50
2019-02-09T15:28:37.386Z,83.90
2019-02-09T15:31:05.210Z,84.00
2019-02-09T15:33:32.789Z,83.30
2019-02-09T15:36:00.321Z,83.20
2019-02-09T15:38:27.912Z,83.20
2019-02-09T15:40:55.481Z,82.80
2019-02-09T15:43:24.712Z,82.20
2019-02-09T15:45:55.219Z,82.90
2019-02-09T15:48:25.760Z,82.40
2019-02-09T15:50:55.760Z,81.50
2019-02-09T15:53:26.563Z,81.40
2019-02-09T15:55:56.633Z,81.40
2019-02-09T15:58:24.133Z,81.10
2019-02-09T16:00:51.692Z,80.50
2019-02-09T16:03:19.269Z,81.10
2019-02-09T16:05:46.827Z,80.40
2019-02-09T16:08:14.342Z,80.40
2019-02-09T16:10:41.928Z,80.40
2019-02-09T16:13:09.459Z,80.40
2019-02-09T16:15:37.006Z,80.30
2019-02-09T16:18:04.566Z,80.30
2019-02-09T16:20:32.217Z,80.10
2019-02-09T16:22:59.719Z,80.30
2019-02-09T16:25:27.415Z,79.30
2019-02-09T16:27:55.001Z,79.20
2019-02-09T16:30:23.804Z,79.50
2019-02-09T16:32:51.385Z,79.90
2019-02-09T16:35:20.185Z,79.50
2019-02-09T16:37:48.083Z,79.40
2019-02-09T16:40:19.973Z,79.20
2019-02-09T16:42:47.563Z,79.50
2019-02-09T16:45:18.066Z,79.00
2019-02-09T16:47:45.626Z,78.80
2019-02-09T16:50:13.507Z,79.30
2019-02-09T16:52:41.057Z,79.30
2019-02-09T16:55:09.211Z,79.10
2019-02-09T16:57:36.725Z,79.00
2019-02-09T17:00:05.987Z,79.00
2019-02-09T17:02:33.507Z,78.50
2019-02-09T17:05:01.190Z,79.00
2019-02-09T17:07:28.737Z,79.10
2019-02-09T17:09:56.279Z,79.20
2019-02-09T17:12:23.895Z,79.30
2019-02-09T17:14:51.395Z,79.00
2019-02-09T17:17:18.910Z,79.50
2019-02-09T17:19:46.477Z,79.60
2019-02-09T17:22:14.001Z,79.50
2019-02-09T17:24:41.543Z,79.70
2019-02-09T17:27:09.074Z,79.00
2019-02-09T17:29:36.606Z,79.40
2019-02-09T17:32:04.140Z,79.50
2019-02-09T17:34:51.834Z,79.30
2019-02-09T17:37:19.322Z,79.60
2019-02-09T17:39:46.857Z,79.50
2019-02-09T17:42:14.466Z,79.00
2019-02-09T17:44:42.024Z,78.90
2019-02-09T17:47:14.314Z,79.60
2019-02-09T17:49:41.920Z,79.50
2019-02-09T17:52:09.505Z,79.60
2019-02-09T17:54:37.082Z,79.70
2019-02-09T17:57:04.670Z,79.70
2019-02-09T17:59:32.292Z,80.00
2019-02-09T18:01:59.813Z,79.50
2019-02-09T18:04:27.514Z,79.40
2019-02-09T18:06:55.079Z,80.00
2019-02-09T18:09:22.611Z,79.20
2019-02-09T18:11:50.290Z,79.30
2019-02-09T18:14:17.835Z,79.30
2019-02-09T18:16:45.365Z,79.40
2019-02-09T18:19:12.917Z,79.10
2019-02-09T18:21:52.509Z,79.40
2019-02-09T18:24:42.426Z,79.40
2019-02-09T18:27:09.951Z,79.50
2019-02-09T18:29:42.357Z,79.80
2019-02-09T18:32:09.954Z,79.80
2019-02-09T18:34:37.465Z,79.60
2019-02-09T18:37:05.080Z,79.30
2019-02-09T18:39:35.182Z,79.00
2019-02-09T18:42:02.741Z,78.50
2019-02-09T18:44:31.859Z,78.50
2019-02-09T18:46:59.561Z,78.80
2019-02-09T18:49:27.117Z,79.00
2019-02-09T18:51:54.699Z,79.90
2019-02-09T18:54:22.237Z,79.10
2019-02-09T18:56:49.747Z,79.30
2019-02-09T18:59:17.305Z,79.20
2019-02-09T19:01:44.821Z,80.00
2019-02-09T19:04:12.689Z,80.10
2019-02-09T19:06:40.297Z,80.10
2019-02-09T19:09:11.823Z,80.60
2019-02-09T19:11:39.371Z,81.00
2019-02-09T19:14:07.242Z,81.70
2019-02-09T19:16:34.767Z,82.10
2019-02-09T19:19:02.523Z,82.60
2019-02-09T19:21:30.463Z,83.30
2019-02-09T19:24:13.465Z,83.30
2019-02-09T19:26:40.985Z,83.60
2019-02-09T19:29:08.507Z,84.20
2019-02-09T19:31:36.048Z,84.20
2019-02-09T19:34:04.089Z,84.40
2019-02-09T19:36:31.629Z,84.50
2019-02-09T19:38:59.170Z,84.70
2019-02-09T19:41:26.705Z,84.80
2019-02-09T19:43:54.251Z,84.80
2019-02-09T19:46:21.782Z,85.10
2019-02-09T19:48:49.301Z,85.10
2019-02-09T19:51:16.904Z,84.90
2019-02-09T19:53:44.437Z,84.90
2019-02-09T19:56:12.005Z,85.10
2019-02-09T19:58:39.557Z,85.00
2019-02-09T20:01:07.091Z,85.00
2019-02-09T20:03:34.612Z,84.70
2019-02-09T20:06:02.173Z,84.30
2019-02-09T20:08:29.675Z,83.90
2019-02-09T20:10:57.323Z,83.60
2019-02-09T20:13:26.060Z,83.70
2019-02-09T20:15:53.493Z,83.70
2019-02-09T20:18:21.009Z,83.50
2019-02-09T20:20:48.581Z,83.20
2019-02-09T20:23:17.980Z,83.10
2019-02-09T20:25:45.404Z,82.90
2019-02-09T20:28:12.986Z,83.00
2019-02-09T20:30:40.600Z,82.80
2019-02-09T20:33:08.130Z,82.50
2019-02-09T20:35:35.977Z,82.70
2019-02-09T20:38:04.103Z,82.60
2019-02-09T20:40:36.766Z,82.30
2019-02-09T20:43:05.301Z,82.20
2019-02-09T20:45:32.861Z,82.20
2019-02-09T20:48:00.450Z,82.20
2019-02-09T20:50:27.995Z,82.00
2019-02-09T20:52:55.531Z,82.10
2019-02-09T20:55:23.095Z,82.10
2019-02-09T20:57:50.953Z,82.00
2019-02-09T21:00:19.723Z,82.00
2019-02-09T21:02:47.281Z,81.90
2019-02-09T21:05:15.337Z,82.10
2019-02-09T21:07:42.873Z,81.70
2019-02-09T21:10:29.377Z,82.20
2019-02-09T21:12:57.059Z,82.40
2019-02-09T21:15:25.625Z,82.70
2019-02-09T21:17:53.189Z,82.80
2019-02-09T21:20:20.815Z,83.30
2019-02-09T21:22:48.366Z,83.80
2019-02-09T21:25:26.969Z,84.10
2019-02-09T21:27:54.542Z,84.40
2019-02-09T21:30:22.105Z,84.60
2019-02-09T21:32:49.684Z,84.60
2019-02-09T21:35:17.361Z,84.70
2019-02-09T21:37:45.001Z,85.30
2019-02-09T21:40:16.026Z,85.30
2019-02-09T21:42:44.041Z,85.40
2019-02-09T21:45:17.308Z,85.70
2019-02-09T21:47:44.954Z,85.90
2019-02-09T21:50:24.553Z,86.10
2019-02-09T21:52:52.088Z,85.70
2019-02-09T21:55:19.897Z,86.10
2019-02-09T21:57:47.529Z,86.30
2019-02-09T22:00:20.621Z,86.40
2019-02-09T22:02:48.541Z,86.20
2019-02-09T22:05:16.569Z,86.40
2019-02-09T22:07:44.521Z,86.80
2019-02-09T22:10:15.208Z,87.20
2019-02-09T22:12:43.009Z,87.70
2019-02-09T22:15:11.134Z,87.70
2019-02-09T22:17:38.762Z,87.70
2019-02-09T22:20:09.157Z,87.80
2019-02-09T22:22:36.710Z,87.40
2019-02-09T22:25:05.988Z,87.60
2019-02-09T22:27:33.718Z,88.00
2019-02-09T22:30:01.744Z,88.60
2019-02-09T22:32:29.800Z,88.40
2019-02-09T22:35:00.278Z,87.90
2019-02-09T22:37:32.761Z,88.70
2019-02-09T22:40:02.667Z,88.50
2019-02-09T22:42:30.351Z,88.70
2019-02-09T22:45:00.889Z,89.00
2019-02-09T22:47:28.789Z,89.10
2019-02-09T22:50:01.284Z,89.60
2019-02-09T22:52:41.320Z,90.00
2019-02-09T22:55:09.807Z,89.60
2019-02-09T22:57:37.301Z,90.10
2019-02-09T23:00:16.136Z,90.10
2019-02-09T23:02:43.768Z,90.30
2019-02-09T23:06:08.191Z,90.30
2019-02-09T23:08:38.023Z,90.30
2019-02-09T23:11:05.596Z,90.60
2019-02-09T23:13:33.100Z,90.70
2019-02-09T23:16:03.774Z,90.70
2019-02-09T23:18:31.294Z,90.90
2019-02-09T23:20:59.021Z,90.70
2019-02-09T23:23:26.570Z,91.20
2019-02-09T23:25:55.036Z,90.80
2019-02-09T23:28:22.608Z,91.00
2019-02-09T23:30:50.296Z,91.10
2019-02-09T23:33:17.805Z,91.20
2019-02-09T23:35:45.358Z,91.50
2019-02-09T23:38:12.936Z,91.50
2019-02-09T23:40:40.474Z,91.60
2019-02-09T23:43:08.113Z,91.80
2019-02-09T23:45:35.859Z,91.90
2019-02-09T23:48:03.340Z,92.00
2019-02-09T23:50:30.839Z,92.20
2019-02-09T23:52:58.384Z,92.30
2019-02-09T23:55:25.904Z,92.30
2019-02-09T23:57:54.308Z,92.40
